sensor_id;sensor_type;location;lat;lon;timestamp;P1;durP1;ratioP1;P2;durP2;ratioP2
43160;SDS011;40968;52.342;5.528;2023-12-14T00:00:11;25.15;;;8.43;;
43160;SDS011;40968;52.342;5.528;2023-12-14T00:02:40;26.48;;;9.45;;
43160;SDS011;40968;52.342;5.528;2023-12-14T00:05:06;26.40;;;9.13;;
43160;SDS011;40968;52.342;5.528;2023-12-14T00:07:33;28.13;;;8.90;;
43160;SDS011;40968;52.342;5.528;2023-12-14T00:09:59;20.95;;;9.45;;
43160;SDS011;40968;52.342;5.528;2023-12-14T00:12:26;19.65;;;7.88;;
43160;SDS011;40968;52.342;5.528;2023-12-14T00:14:53;25.83;;;8.20;;
43160;SDS011;40968;52.342;5.528;2023-12-14T00:17:19;23.75;;;8.45;;
43160;SDS011;40968;52.342;5.528;2023-12-14T00:19:47;26.88;;;8.02;;
43160;SDS011;40968;52.342;5.528;2023-12-14T00:22:14;22.83;;;8.15;;
43160;SDS011;40968;52.342;5.528;2023-12-14T00:24:41;18.38;;;7.72;;
43160;SDS011;40968;52.342;5.528;2023-12-14T00:27:07;19.15;;;7.72;;
43160;SDS011;40968;52.342;5.528;2023-12-14T00:29:35;20.00;;;8.23;;
43160;SDS011;40968;52.342;5.528;2023-12-14T00:32:07;20.35;;;8.13;;
43160;SDS011;40968;52.342;5.528;2023-12-14T00:34:33;23.52;;;8.20;;
43160;SDS011;40968;52.342;5.528;2023-12-14T00:37:02;23.67;;;8.63;;
43160;SDS011;40968;52.342;5.528;2023-12-14T00:39:29;23.92;;;8.93;;
43160;SDS011;40968;52.342;5.528;2023-12-14T00:41:55;21.90;;;8.13;;
43160;SDS011;40968;52.342;5.528;2023-12-14T00:44:22;25.90;;;9.13;;
43160;SDS011;40968;52.342;5.528;2023-12-14T00:46:48;21.60;;;8.55;;
43160;SDS011;40968;52.342;5.528;2023-12-14T00:49:15;19.77;;;8.32;;
43160;SDS011;40968;52.342;5.528;2023-12-14T00:51:43;24.13;;;9.35;;
43160;SDS011;40968;52.342;5.528;2023-12-14T00:54:11;21.33;;;8.07;;
43160;SDS011;40968;52.342;5.528;2023-12-14T00:56:37;25.20;;;8.98;;
43160;SDS011;40968;52.342;5.528;2023-12-14T00:59:04;23.50;;;7.93;;
43160;SDS011;40968;52.342;5.528;2023-12-14T01:01:31;24.83;;;8.30;;
43160;SDS011;40968;52.342;5.528;2023-12-14T01:03:57;32.20;;;8.27;;
43160;SDS011;40968;52.342;5.528;2023-12-14T01:06:24;24.55;;;8.65;;
43160;SDS011;40968;52.342;5.528;2023-12-14T01:08:51;21.45;;;8.13;;
43160;SDS011;40968;52.342;5.528;2023-12-14T01:11:19;25.58;;;8.63;;
43160;SDS011;40968;52.342;5.528;2023-12-14T01:13:46;21.67;;;7.50;;
43160;SDS011;40968;52.342;5.528;2023-12-14T01:18:45;17.33;;;7.05;;
43160;SDS011;40968;52.342;5.528;2023-12-14T01:21:11;25.50;;;8.73;;
43160;SDS011;40968;52.342;5.528;2023-12-14T01:23:38;28.23;;;9.25;;
43160;SDS011;40968;52.342;5.528;2023-12-14T01:26:04;19.42;;;7.75;;
43160;SDS011;40968;52.342;5.528;2023-12-14T01:28:32;24.15;;;7.97;;
43160;SDS011;40968;52.342;5.528;2023-12-14T01:30:59;21.77;;;8.48;;
43160;SDS011;40968;52.342;5.528;2023-12-14T01:33:25;20.98;;;8.15;;
43160;SDS011;40968;52.342;5.528;2023-12-14T01:35:52;21.73;;;7.88;;
43160;SDS011;40968;52.342;5.528;2023-12-14T01:38:18;20.92;;;8.07;;
43160;SDS011;40968;52.342;5.528;2023-12-14T01:40:45;25.35;;;8.55;;
43160;SDS011;40968;52.342;5.528;2023-12-14T01:43:11;24.70;;;8.65;;
43160;SDS011;40968;52.342;5.528;2023-12-14T01:45:39;22.58;;;9.35;;
43160;SDS011;40968;52.342;5.528;2023-12-14T01:48:06;27.00;;;8.13;;
43160;SDS011;40968;52.342;5.528;2023-12-14T01:50:33;20.08;;;8.50;;
43160;SDS011;40968;52.342;5.528;2023-12-14T01:52:59;21.30;;;8.82;;
43160;SDS011;40968;52.342;5.528;2023-12-14T01:55:26;28.10;;;10.23;;
43160;SDS011;40968;52.342;5.528;2023-12-14T01:57:52;25.15;;;9.57;;
43160;SDS011;40968;52.342;5.528;2023-12-14T02:00:20;24.52;;;8.52;;
43160;SDS011;40968;52.342;5.528;2023-12-14T02:03:02;22.00;;;8.82;;
43160;SDS011;40968;52.342;5.528;2023-12-14T02:05:28;22.58;;;8.68;;
43160;SDS011;40968;52.342;5.528;2023-12-14T02:07:55;24.05;;;8.90;;
43160;SDS011;40968;52.342;5.528;2023-12-14T02:10:22;26.75;;;8.20;;
43160;SDS011;40968;52.342;5.528;2023-12-14T02:12:49;28.60;;;8.65;;
43160;SDS011;40968;52.342;5.528;2023-12-14T02:15:16;30.42;;;9.63;;
43160;SDS011;40968;52.342;5.528;2023-12-14T02:17:42;19.65;;;8.43;;
43160;SDS011;40968;52.342;5.528;2023-12-14T02:20:10;22.45;;;8.27;;
43160;SDS011;40968;52.342;5.528;2023-12-14T02:22:49;24.45;;;8.77;;
43160;SDS011;40968;52.342;5.528;2023-12-14T02:25:16;22.70;;;9.38;;
43160;SDS011;40968;52.342;5.528;2023-12-14T02:27:42;25.35;;;8.90;;
43160;SDS011;40968;52.342;5.528;2023-12-14T02:30:10;20.27;;;8.63;;
43160;SDS011;40968;52.342;5.528;2023-12-14T02:32:37;22.80;;;8.63;;
43160;SDS011;40968;52.342;5.528;2023-12-14T02:35:04;25.15;;;9.20;;
43160;SDS011;40968;52.342;5.528;2023-12-14T02:37:32;30.17;;;9.35;;
43160;SDS011;40968;52.342;5.528;2023-12-14T02:40:00;28.42;;;9.80;;
43160;SDS011;40968;52.342;5.528;2023-12-14T02:42:27;31.38;;;9.70;;
43160;SDS011;40968;52.342;5.528;2023-12-14T02:44:53;28.90;;;9.98;;
43160;SDS011;40968;52.342;5.528;2023-12-14T02:47:20;27.77;;;10.23;;
43160;SDS011;40968;52.342;5.528;2023-12-14T02:49:47;29.98;;;10.30;;
43160;SDS011;40968;52.342;5.528;2023-12-14T02:52:13;27.77;;;9.40;;
43160;SDS011;40968;52.342;5.528;2023-12-14T02:54:40;30.58;;;9.55;;
43160;SDS011;40968;52.342;5.528;2023-12-14T02:57:08;32.40;;;9.10;;
43160;SDS011;40968;52.342;5.528;2023-12-14T02:59:35;26.80;;;11.45;;
43160;SDS011;40968;52.342;5.528;2023-12-14T03:02:01;30.90;;;10.13;;
43160;SDS011;40968;52.342;5.528;2023-12-14T03:04:28;26.50;;;10.18;;
43160;SDS011;40968;52.342;5.528;2023-12-14T03:06:55;28.60;;;9.70;;
43160;SDS011;40968;52.342;5.528;2023-12-14T03:09:22;30.30;;;10.10;;
43160;SDS011;40968;52.342;5.528;2023-12-14T03:11:48;22.17;;;8.52;;
43160;SDS011;40968;52.342;5.528;2023-12-14T03:14:17;26.70;;;8.27;;
43160;SDS011;40968;52.342;5.528;2023-12-14T03:16:51;23.23;;;8.35;;
43160;SDS011;40968;52.342;5.528;2023-12-14T03:19:19;24.52;;;8.10;;
43160;SDS011;40968;52.342;5.528;2023-12-14T03:21:45;19.27;;;8.10;;
43160;SDS011;40968;52.342;5.528;2023-12-14T03:24:12;21.65;;;7.97;;
43160;SDS011;40968;52.342;5.528;2023-12-14T03:26:38;20.63;;;7.68;;
43160;SDS011;40968;52.342;5.528;2023-12-14T03:29:05;18.80;;;7.95;;
43160;SDS011;40968;52.342;5.528;2023-12-14T03:31:34;16.23;;;6.82;;
43160;SDS011;40968;52.342;5.528;2023-12-14T03:34:01;21.42;;;7.15;;
43160;SDS011;40968;52.342;5.528;2023-12-14T03:36:28;17.38;;;7.20;;
43160;SDS011;40968;52.342;5.528;2023-12-14T03:38:55;23.92;;;7.18;;
43160;SDS011;40968;52.342;5.528;2023-12-14T03:41:21;21.95;;;7.13;;
43160;SDS011;40968;52.342;5.528;2023-12-14T03:43:48;17.27;;;6.22;;
43160;SDS011;40968;52.342;5.528;2023-12-14T03:46:15;22.02;;;7.13;;
43160;SDS011;40968;52.342;5.528;2023-12-14T03:48:43;21.90;;;7.93;;
43160;SDS011;40968;52.342;5.528;2023-12-14T03:51:17;23.67;;;7.38;;
43160;SDS011;40968;52.342;5.528;2023-12-14T03:53:44;17.25;;;7.38;;
43160;SDS011;40968;52.342;5.528;2023-12-14T03:56:10;17.77;;;6.25;;
43160;SDS011;40968;52.342;5.528;2023-12-14T03:58:37;18.45;;;6.72;;
43160;SDS011;40968;52.342;5.528;2023-12-14T04:01:04;19.08;;;6.90;;
43160;SDS011;40968;52.342;5.528;2023-12-14T04:03:31;22.30;;;7.20;;
43160;SDS011;40968;52.342;5.528;2023-12-14T04:05:59;24.90;;;8.07;;
43160;SDS011;40968;52.342;5.528;2023-12-14T04:08:26;23.77;;;7.60;;
43160;SDS011;40968;52.342;5.528;2023-12-14T04:10:53;22.33;;;7.32;;
43160;SDS011;40968;52.342;5.528;2023-12-14T04:13:19;20.67;;;7.30;;
43160;SDS011;40968;52.342;5.528;2023-12-14T04:15:46;23.98;;;8.20;;
43160;SDS011;40968;52.342;5.528;2023-12-14T04:18:12;22.23;;;7.18;;
43160;SDS011;40968;52.342;5.528;2023-12-14T04:20:39;23.02;;;8.93;;
43160;SDS011;40968;52.342;5.528;2023-12-14T04:23:07;18.90;;;7.15;;
43160;SDS011;40968;52.342;5.528;2023-12-14T04:25:33;20.35;;;7.45;;
43160;SDS011;40968;52.342;5.528;2023-12-14T04:28:00;21.25;;;7.68;;
43160;SDS011;40968;52.342;5.528;2023-12-14T04:30:27;19.33;;;7.40;;
43160;SDS011;40968;52.342;5.528;2023-12-14T04:32:53;20.23;;;7.15;;
43160;SDS011;40968;52.342;5.528;2023-12-14T04:35:20;22.67;;;7.97;;
43160;SDS011;40968;52.342;5.528;2023-12-14T04:37:47;26.77;;;8.82;;
43160;SDS011;40968;52.342;5.528;2023-12-14T04:40:17;19.92;;;7.68;;
43160;SDS011;40968;52.342;5.528;2023-12-14T04:42:44;21.45;;;7.63;;
43160;SDS011;40968;52.342;5.528;2023-12-14T04:45:10;20.63;;;7.35;;
43160;SDS011;40968;52.342;5.528;2023-12-14T04:47:38;22.55;;;7.28;;
43160;SDS011;40968;52.342;5.528;2023-12-14T04:50:05;17.33;;;6.63;;
43160;SDS011;40968;52.342;5.528;2023-12-14T04:52:31;19.60;;;7.07;;
43160;SDS011;40968;52.342;5.528;2023-12-14T04:54:58;24.02;;;6.63;;
43160;SDS011;40968;52.342;5.528;2023-12-14T04:57:27;18.17;;;6.40;;
43160;SDS011;40968;52.342;5.528;2023-12-14T04:59:53;12.02;;;4.63;;
43160;SDS011;40968;52.342;5.528;2023-12-14T05:02:20;11.60;;;4.22;;
43160;SDS011;40968;52.342;5.528;2023-12-14T05:04:46;12.05;;;3.83;;
43160;SDS011;40968;52.342;5.528;2023-12-14T05:07:13;10.85;;;5.10;;
43160;SDS011;40968;52.342;5.528;2023-12-14T05:09:40;17.25;;;5.43;;
43160;SDS011;40968;52.342;5.528;2023-12-14T05:12:06;14.48;;;4.60;;
43160;SDS011;40968;52.342;5.528;2023-12-14T05:14:34;12.02;;;5.15;;
43160;SDS011;40968;52.342;5.528;2023-12-14T05:17:01;14.25;;;4.95;;
43160;SDS011;40968;52.342;5.528;2023-12-14T05:19:28;16.30;;;6.00;;
43160;SDS011;40968;52.342;5.528;2023-12-14T05:21:54;16.83;;;5.65;;
43160;SDS011;40968;52.342;5.528;2023-12-14T05:24:21;19.00;;;5.38;;
43160;SDS011;40968;52.342;5.528;2023-12-14T05:26:47;11.38;;;4.63;;
43160;SDS011;40968;52.342;5.528;2023-12-14T05:29:15;13.05;;;4.75;;
43160;SDS011;40968;52.342;5.528;2023-12-14T05:31:43;14.68;;;5.45;;
43160;SDS011;40968;52.342;5.528;2023-12-14T05:34:10;17.95;;;5.97;;
43160;SDS011;40968;52.342;5.528;2023-12-14T05:36:36;22.83;;;7.13;;
43160;SDS011;40968;52.342;5.528;2023-12-14T05:39:03;15.60;;;5.75;;
43160;SDS011;40968;52.342;5.528;2023-12-14T05:41:29;13.70;;;5.95;;
43160;SDS011;40968;52.342;5.528;2023-12-14T05:43:56;15.52;;;5.55;;
43160;SDS011;40968;52.342;5.528;2023-12-14T05:46:23;21.52;;;6.03;;
43160;SDS011;40968;52.342;5.528;2023-12-14T05:48:51;16.85;;;5.70;;
43160;SDS011;40968;52.342;5.528;2023-12-14T05:51:28;16.98;;;5.60;;
43160;SDS011;40968;52.342;5.528;2023-12-14T05:53:55;18.23;;;5.85;;
43160;SDS011;40968;52.342;5.528;2023-12-14T05:56:22;17.92;;;6.13;;
43160;SDS011;40968;52.342;5.528;2023-12-14T05:58:48;13.60;;;6.43;;
43160;SDS011;40968;52.342;5.528;2023-12-14T06:01:16;18.40;;;6.25;;
43160;SDS011;40968;52.342;5.528;2023-12-14T06:03:43;19.05;;;6.97;;
43160;SDS011;40968;52.342;5.528;2023-12-14T06:06:11;16.10;;;6.28;;
43160;SDS011;40968;52.342;5.528;2023-12-14T06:08:39;17.80;;;5.88;;
43160;SDS011;40968;52.342;5.528;2023-12-14T06:11:06;17.38;;;6.13;;
43160;SDS011;40968;52.342;5.528;2023-12-14T06:13:33;18.65;;;6.32;;
43160;SDS011;40968;52.342;5.528;2023-12-14T06:16:00;13.32;;;6.05;;
43160;SDS011;40968;52.342;5.528;2023-12-14T06:18:28;17.52;;;5.65;;
43160;SDS011;40968;52.342;5.528;2023-12-14T06:20:54;14.15;;;5.75;;
43160;SDS011;40968;52.342;5.528;2023-12-14T06:23:22;16.73;;;5.55;;
43160;SDS011;40968;52.342;5.528;2023-12-14T06:25:50;16.98;;;6.55;;
43160;SDS011;40968;52.342;5.528;2023-12-14T06:28:17;16.45;;;6.63;;
43160;SDS011;40968;52.342;5.528;2023-12-14T06:30:44;15.00;;;6.05;;
43160;SDS011;40968;52.342;5.528;2023-12-14T06:33:10;23.88;;;6.13;;
43160;SDS011;40968;52.342;5.528;2023-12-14T06:35:37;18.80;;;6.50;;
43160;SDS011;40968;52.342;5.528;2023-12-14T06:38:03;15.10;;;6.18;;
43160;SDS011;40968;52.342;5.528;2023-12-14T06:40:31;13.77;;;5.63;;
43160;SDS011;40968;52.342;5.528;2023-12-14T06:42:58;20.10;;;6.70;;
43160;SDS011;40968;52.342;5.528;2023-12-14T06:45:25;21.05;;;6.60;;
43160;SDS011;40968;52.342;5.528;2023-12-14T06:47:51;18.83;;;6.55;;
43160;SDS011;40968;52.342;5.528;2023-12-14T06:50:18;16.63;;;6.80;;
43160;SDS011;40968;52.342;5.528;2023-12-14T06:52:44;15.18;;;5.70;;
43160;SDS011;40968;52.342;5.528;2023-12-14T06:55:11;15.48;;;5.88;;
43160;SDS011;40968;52.342;5.528;2023-12-14T06:57:41;19.27;;;7.60;;
43160;SDS011;40968;52.342;5.528;2023-12-14T07:00:09;14.55;;;5.50;;
43160;SDS011;40968;52.342;5.528;2023-12-14T07:02:36;16.02;;;6.35;;
43160;SDS011;40968;52.342;5.528;2023-12-14T07:05:03;21.45;;;7.47;;
43160;SDS011;40968;52.342;5.528;2023-12-14T07:07:30;20.13;;;6.45;;
43160;SDS011;40968;52.342;5.528;2023-12-14T07:09:57;20.02;;;6.85;;
43160;SDS011;40968;52.342;5.528;2023-12-14T07:12:23;21.25;;;6.93;;
43160;SDS011;40968;52.342;5.528;2023-12-14T07:14:51;22.88;;;8.30;;
43160;SDS011;40968;52.342;5.528;2023-12-14T07:17:18;22.63;;;7.50;;
43160;SDS011;40968;52.342;5.528;2023-12-14T07:19:44;18.65;;;6.70;;
43160;SDS011;40968;52.342;5.528;2023-12-14T07:22:11;22.38;;;7.45;;
43160;SDS011;40968;52.342;5.528;2023-12-14T07:24:37;20.63;;;7.22;;
43160;SDS011;40968;52.342;5.528;2023-12-14T07:27:04;19.85;;;7.30;;
43160;SDS011;40968;52.342;5.528;2023-12-14T07:29:30;15.95;;;6.32;;
43160;SDS011;40968;52.342;5.528;2023-12-14T07:31:58;18.80;;;7.75;;
43160;SDS011;40968;52.342;5.528;2023-12-14T07:34:25;21.00;;;7.32;;
43160;SDS011;40968;52.342;5.528;2023-12-14T07:36:53;18.15;;;6.53;;
43160;SDS011;40968;52.342;5.528;2023-12-14T07:39:19;17.88;;;5.80;;
43160;SDS011;40968;52.342;5.528;2023-12-14T07:41:46;16.85;;;6.00;;
43160;SDS011;40968;52.342;5.528;2023-12-14T07:44:13;14.55;;;6.43;;
43160;SDS011;40968;52.342;5.528;2023-12-14T07:46:40;17.00;;;6.20;;
43160;SDS011;40968;52.342;5.528;2023-12-14T07:49:09;18.77;;;6.57;;
43160;SDS011;40968;52.342;5.528;2023-12-14T07:51:36;19.75;;;7.00;;
43160;SDS011;40968;52.342;5.528;2023-12-14T07:54:02;18.88;;;6.63;;
43160;SDS011;40968;52.342;5.528;2023-12-14T07:56:29;24.33;;;6.90;;
43160;SDS011;40968;52.342;5.528;2023-12-14T07:58:57;20.88;;;7.22;;
43160;SDS011;40968;52.342;5.528;2023-12-14T08:01:24;15.35;;;5.70;;
43160;SDS011;40968;52.342;5.528;2023-12-14T08:03:50;19.67;;;6.90;;
43160;SDS011;40968;52.342;5.528;2023-12-14T08:06:18;18.70;;;6.38;;
43160;SDS011;40968;52.342;5.528;2023-12-14T08:08:45;14.25;;;6.65;;
43160;SDS011;40968;52.342;5.528;2023-12-14T08:11:11;17.63;;;5.88;;
43160;SDS011;40968;52.342;5.528;2023-12-14T08:13:38;32.70;;;8.40;;
43160;SDS011;40968;52.342;5.528;2023-12-14T08:16:05;18.58;;;6.72;;
43160;SDS011;40968;52.342;5.528;2023-12-14T08:18:32;15.38;;;5.88;;
43160;SDS011;40968;52.342;5.528;2023-12-14T08:20:59;20.33;;;6.50;;
43160;SDS011;40968;52.342;5.528;2023-12-14T08:26:02;19.25;;;6.53;;
43160;SDS011;40968;52.342;5.528;2023-12-14T08:28:29;18.10;;;6.80;;
43160;SDS011;40968;52.342;5.528;2023-12-14T08:30:56;15.18;;;5.53;;
43160;SDS011;40968;52.342;5.528;2023-12-14T08:33:23;27.05;;;7.00;;
43160;SDS011;40968;52.342;5.528;2023-12-14T08:35:50;16.88;;;6.25;;
43160;SDS011;40968;52.342;5.528;2023-12-14T08:38:17;12.27;;;5.28;;
43160;SDS011;40968;52.342;5.528;2023-12-14T08:40:43;20.63;;;6.72;;
43160;SDS011;40968;52.342;5.528;2023-12-14T08:43:11;21.25;;;5.78;;
43160;SDS011;40968;52.342;5.528;2023-12-14T08:45:38;18.50;;;5.88;;
43160;SDS011;40968;52.342;5.528;2023-12-14T08:48:05;16.25;;;5.80;;
43160;SDS011;40968;52.342;5.528;2023-12-14T08:50:32;14.98;;;5.85;;
43160;SDS011;40968;52.342;5.528;2023-12-14T08:52:58;18.13;;;6.28;;
43160;SDS011;40968;52.342;5.528;2023-12-14T08:55:25;17.80;;;6.78;;
43160;SDS011;40968;52.342;5.528;2023-12-14T08:57:52;19.30;;;6.00;;
43160;SDS011;40968;52.342;5.528;2023-12-14T09:00:20;19.92;;;6.18;;
43160;SDS011;40968;52.342;5.528;2023-12-14T09:02:47;17.15;;;6.30;;
43160;SDS011;40968;52.342;5.528;2023-12-14T09:05:13;19.70;;;6.63;;
43160;SDS011;40968;52.342;5.528;2023-12-14T09:07:41;21.20;;;6.97;;
43160;SDS011;40968;52.342;5.528;2023-12-14T09:10:08;19.52;;;6.65;;
43160;SDS011;40968;52.342;5.528;2023-12-14T09:12:35;17.88;;;6.63;;
43160;SDS011;40968;52.342;5.528;2023-12-14T09:15:02;19.92;;;6.70;;
43160;SDS011;40968;52.342;5.528;2023-12-14T09:17:30;20.95;;;7.43;;
43160;SDS011;40968;52.342;5.528;2023-12-14T09:19:58;22.67;;;7.45;;
43160;SDS011;40968;52.342;5.528;2023-12-14T09:22:25;20.75;;;6.68;;
43160;SDS011;40968;52.342;5.528;2023-12-14T09:24:52;18.13;;;6.82;;
43160;SDS011;40968;52.342;5.528;2023-12-14T09:27:18;20.63;;;7.45;;
43160;SDS011;40968;52.342;5.528;2023-12-14T09:29:45;20.17;;;7.13;;
43160;SDS011;40968;52.342;5.528;2023-12-14T09:32:12;24.90;;;7.35;;
43160;SDS011;40968;52.342;5.528;2023-12-14T09:34:40;19.05;;;6.63;;
43160;SDS011;40968;52.342;5.528;2023-12-14T09:37:07;21.05;;;6.40;;
43160;SDS011;40968;52.342;5.528;2023-12-14T09:39:33;14.27;;;5.88;;
43160;SDS011;40968;52.342;5.528;2023-12-14T09:42:01;21.67;;;6.78;;
43160;SDS011;40968;52.342;5.528;2023-12-14T09:44:29;18.48;;;6.25;;
43160;SDS011;40968;52.342;5.528;2023-12-14T09:46:56;18.77;;;6.47;;
43160;SDS011;40968;52.342;5.528;2023-12-14T09:49:25;18.35;;;6.43;;
43160;SDS011;40968;52.342;5.528;2023-12-14T09:51:55;16.83;;;5.63;;
43160;SDS011;40968;52.342;5.528;2023-12-14T09:54:22;19.17;;;7.13;;
43160;SDS011;40968;52.342;5.528;2023-12-14T09:56:49;22.52;;;7.57;;
43160;SDS011;40968;52.342;5.528;2023-12-14T09:59:17;23.13;;;7.18;;
43160;SDS011;40968;52.342;5.528;2023-12-14T10:01:44;20.05;;;5.75;;
43160;SDS011;40968;52.342;5.528;2023-12-14T10:04:12;22.17;;;7.10;;
43160;SDS011;40968;52.342;5.528;2023-12-14T10:06:40;17.95;;;6.35;;
43160;SDS011;40968;52.342;5.528;2023-12-14T10:09:09;20.75;;;6.95;;
43160;SDS011;40968;52.342;5.528;2023-12-14T10:11:38;19.08;;;6.85;;
43160;SDS011;40968;52.342;5.528;2023-12-14T10:14:17;14.18;;;6.57;;
43160;SDS011;40968;52.342;5.528;2023-12-14T10:16:45;18.25;;;6.60;;
43160;SDS011;40968;52.342;5.528;2023-12-14T10:19:13;18.17;;;6.32;;
43160;SDS011;40968;52.342;5.528;2023-12-14T10:21:39;17.45;;;6.63;;
43160;SDS011;40968;52.342;5.528;2023-12-14T10:24:06;14.50;;;6.50;;
43160;SDS011;40968;52.342;5.528;2023-12-14T10:26:34;14.55;;;5.72;;
43160;SDS011;40968;52.342;5.528;2023-12-14T10:29:01;18.92;;;5.97;;
43160;SDS011;40968;52.342;5.528;2023-12-14T10:31:29;17.40;;;6.20;;
43160;SDS011;40968;52.342;5.528;2023-12-14T10:33:56;16.05;;;6.00;;
43160;SDS011;40968;52.342;5.528;2023-12-14T10:36:24;11.43;;;4.75;;
43160;SDS011;40968;52.342;5.528;2023-12-14T10:38:52;16.83;;;5.60;;
43160;SDS011;40968;52.342;5.528;2023-12-14T10:41:20;13.82;;;5.05;;
43160;SDS011;40968;52.342;5.528;2023-12-14T10:43:48;16.75;;;5.25;;
43160;SDS011;40968;52.342;5.528;2023-12-14T10:46:16;14.25;;;5.18;;
43160;SDS011;40968;52.342;5.528;2023-12-14T10:48:45;13.60;;;5.10;;
43160;SDS011;40968;52.342;5.528;2023-12-14T10:51:13;13.98;;;4.75;;
43160;SDS011;40968;52.342;5.528;2023-12-14T10:53:41;16.00;;;4.22;;
43160;SDS011;40968;52.342;5.528;2023-12-14T10:56:12;13.68;;;4.63;;
43160;SDS011;40968;52.342;5.528;2023-12-14T10:58:44;9.70;;;4.28;;
43160;SDS011;40968;52.342;5.528;2023-12-14T11:01:14;11.20;;;4.20;;
43160;SDS011;40968;52.342;5.528;2023-12-14T11:03:42;12.10;;;4.57;;
43160;SDS011;40968;52.342;5.528;2023-12-14T11:08:59;16.73;;;4.82;;
43160;SDS011;40968;52.342;5.528;2023-12-14T11:11:31;15.90;;;5.03;;
43160;SDS011;40968;52.342;5.528;2023-12-14T11:14:07;17.65;;;5.95;;
43160;SDS011;40968;52.342;5.528;2023-12-14T11:16:37;13.18;;;5.20;;
43160;SDS011;40968;52.342;5.528;2023-12-14T11:19:28;17.67;;;5.57;;
43160;SDS011;40968;52.342;5.528;2023-12-14T11:22:11;16.80;;;5.85;;
43160;SDS011;40968;52.342;5.528;2023-12-14T11:24:42;16.58;;;5.50;;
43160;SDS011;40968;52.342;5.528;2023-12-14T11:27:16;14.23;;;5.68;;
43160;SDS011;40968;52.342;5.528;2023-12-14T11:29:47;15.85;;;5.80;;
43160;SDS011;40968;52.342;5.528;2023-12-14T11:32:15;19.48;;;6.13;;
43160;SDS011;40968;52.342;5.528;2023-12-14T11:34:43;12.63;;;5.25;;
43160;SDS011;40968;52.342;5.528;2023-12-14T11:37:12;15.25;;;5.93;;
43160;SDS011;40968;52.342;5.528;2023-12-14T11:39:39;15.90;;;5.82;;
43160;SDS011;40968;52.342;5.528;2023-12-14T11:42:05;16.48;;;5.97;;
43160;SDS011;40968;52.342;5.528;2023-12-14T11:44:35;16.63;;;6.20;;
43160;SDS011;40968;52.342;5.528;2023-12-14T11:47:02;16.98;;;5.80;;
43160;SDS011;40968;52.342;5.528;2023-12-14T11:49:30;13.88;;;5.88;;
43160;SDS011;40968;52.342;5.528;2023-12-14T11:51:57;15.77;;;6.50;;
43160;SDS011;40968;52.342;5.528;2023-12-14T11:54:24;15.20;;;5.68;;
43160;SDS011;40968;52.342;5.528;2023-12-14T11:56:51;15.50;;;5.90;;
43160;SDS011;40968;52.342;5.528;2023-12-14T11:59:19;17.02;;;5.93;;
43160;SDS011;40968;52.342;5.528;2023-12-14T12:01:55;14.82;;;6.18;;
43160;SDS011;40968;52.342;5.528;2023-12-14T12:04:23;17.58;;;5.47;;
43160;SDS011;40968;52.342;5.528;2023-12-14T12:07:00;15.68;;;5.38;;
43160;SDS011;40968;52.342;5.528;2023-12-14T12:09:36;16.05;;;6.15;;
43160;SDS011;40968;52.342;5.528;2023-12-14T12:12:07;17.50;;;5.55;;
43160;SDS011;40968;52.342;5.528;2023-12-14T12:14:35;19.45;;;5.57;;
43160;SDS011;40968;52.342;5.528;2023-12-14T12:17:02;16.30;;;5.07;;
43160;SDS011;40968;52.342;5.528;2023-12-14T12:19:31;16.83;;;5.43;;
43160;SDS011;40968;52.342;5.528;2023-12-14T12:21:59;17.90;;;5.53;;
43160;SDS011;40968;52.342;5.528;2023-12-14T12:24:26;13.85;;;5.10;;
43160;SDS011;40968;52.342;5.528;2023-12-14T12:26:53;16.65;;;5.80;;
43160;SDS011;40968;52.342;5.528;2023-12-14T12:29:20;16.63;;;5.55;;
43160;SDS011;40968;52.342;5.528;2023-12-14T12:31:47;14.10;;;5.53;;
43160;SDS011;40968;52.342;5.528;2023-12-14T12:34:14;12.55;;;5.50;;
43160;SDS011;40968;52.342;5.528;2023-12-14T12:36:40;16.42;;;5.22;;
43160;SDS011;40968;52.342;5.528;2023-12-14T12:39:08;14.85;;;5.07;;
43160;SDS011;40968;52.342;5.528;2023-12-14T12:41:35;16.45;;;5.57;;
43160;SDS011;40968;52.342;5.528;2023-12-14T12:44:03;15.30;;;5.75;;
43160;SDS011;40968;52.342;5.528;2023-12-14T12:46:32;12.05;;;4.55;;
43160;SDS011;40968;52.342;5.528;2023-12-14T12:48:59;14.30;;;5.22;;
43160;SDS011;40968;52.342;5.528;2023-12-14T12:51:26;15.50;;;5.93;;
43160;SDS011;40968;52.342;5.528;2023-12-14T12:53:54;18.55;;;5.88;;
43160;SDS011;40968;52.342;5.528;2023-12-14T12:56:23;15.43;;;5.38;;
43160;SDS011;40968;52.342;5.528;2023-12-14T12:58:50;15.68;;;5.80;;
43160;SDS011;40968;52.342;5.528;2023-12-14T13:01:19;20.67;;;5.82;;
43160;SDS011;40968;52.342;5.528;2023-12-14T13:03:46;17.52;;;6.22;;
43160;SDS011;40968;52.342;5.528;2023-12-14T13:06:12;13.90;;;5.75;;
43160;SDS011;40968;52.342;5.528;2023-12-14T13:08:39;16.98;;;6.18;;
43160;SDS011;40968;52.342;5.528;2023-12-14T13:11:06;19.67;;;7.10;;
43160;SDS011;40968;52.342;5.528;2023-12-14T13:13:33;17.65;;;5.82;;
43160;SDS011;40968;52.342;5.528;2023-12-14T13:16:00;21.98;;;7.68;;
43160;SDS011;40968;52.342;5.528;2023-12-14T13:18:27;16.30;;;6.00;;
43160;SDS011;40968;52.342;5.528;2023-12-14T13:20:53;12.90;;;5.88;;
43160;SDS011;40968;52.342;5.528;2023-12-14T13:23:20;20.65;;;6.25;;
43160;SDS011;40968;52.342;5.528;2023-12-14T13:25:47;17.13;;;6.30;;
43160;SDS011;40968;52.342;5.528;2023-12-14T13:28:13;23.00;;;6.53;;
43160;SDS011;40968;52.342;5.528;2023-12-14T13:30:42;20.70;;;6.55;;
43160;SDS011;40968;52.342;5.528;2023-12-14T13:33:09;18.17;;;6.38;;
43160;SDS011;40968;52.342;5.528;2023-12-14T13:35:37;20.13;;;6.22;;
43160;SDS011;40968;52.342;5.528;2023-12-14T13:38:03;16.77;;;6.05;;
43160;SDS011;40968;52.342;5.528;2023-12-14T13:40:30;15.23;;;5.75;;
43160;SDS011;40968;52.342;5.528;2023-12-14T13:42:57;18.40;;;5.65;;
43160;SDS011;40968;52.342;5.528;2023-12-14T13:45:29;16.70;;;6.53;;
43160;SDS011;40968;52.342;5.528;2023-12-14T13:48:00;19.35;;;6.30;;
43160;SDS011;40968;52.342;5.528;2023-12-14T13:50:26;18.00;;;6.18;;
43160;SDS011;40968;52.342;5.528;2023-12-14T13:52:53;13.48;;;5.32;;
43160;SDS011;40968;52.342;5.528;2023-12-14T13:55:20;18.20;;;6.57;;
43160;SDS011;40968;52.342;5.528;2023-12-14T13:57:47;20.95;;;6.10;;
43160;SDS011;40968;52.342;5.528;2023-12-14T14:00:14;17.92;;;6.28;;
43160;SDS011;40968;52.342;5.528;2023-12-14T14:02:41;16.10;;;6.35;;
43160;SDS011;40968;52.342;5.528;2023-12-14T14:05:09;16.42;;;5.70;;
43160;SDS011;40968;52.342;5.528;2023-12-14T14:07:36;18.02;;;6.00;;
43160;SDS011;40968;52.342;5.528;2023-12-14T14:10:03;16.45;;;6.32;;
43160;SDS011;40968;52.342;5.528;2023-12-14T14:12:30;17.20;;;6.40;;
43160;SDS011;40968;52.342;5.528;2023-12-14T14:14:57;18.27;;;6.05;;
43160;SDS011;40968;52.342;5.528;2023-12-14T14:17:23;16.42;;;6.47;;
43160;SDS011;40968;52.342;5.528;2023-12-14T14:19:50;20.30;;;5.43;;
43160;SDS011;40968;52.342;5.528;2023-12-14T14:22:18;13.60;;;5.05;;
43160;SDS011;40968;52.342;5.528;2023-12-14T14:24:44;17.45;;;5.72;;
43160;SDS011;40968;52.342;5.528;2023-12-14T14:27:11;13.48;;;5.90;;
43160;SDS011;40968;52.342;5.528;2023-12-14T14:29:38;18.63;;;5.90;;
43160;SDS011;40968;52.342;5.528;2023-12-14T14:32:04;16.48;;;5.63;;
43160;SDS011;40968;52.342;5.528;2023-12-14T14:34:31;17.92;;;6.05;;
43160;SDS011;40968;52.342;5.528;2023-12-14T14:36:58;13.80;;;5.78;;
43160;SDS011;40968;52.342;5.528;2023-12-14T14:39:26;19.75;;;6.47;;
43160;SDS011;40968;52.342;5.528;2023-12-14T14:41:52;17.35;;;6.35;;